createdAt,value
2023-11-04T00:01:27.174Z,95552.84
2023-11-04T00:03:55.666Z,95551.78
2023-11-04T00:06:25.354Z,95548.00
2023-11-04T00:08:53.663Z,95552.31
2023-11-04T00:11:22.040Z,95543.78
2023-11-04T00:13:50.297Z,95549.91
2023-11-04T00:16:18.812Z,95551.66
2023-11-04T00:18:48.307Z,95552.16
2023-11-04T00:21:16.848Z,95551.56
2023-11-04T00:23:44.996Z,95555.03
2023-11-04T00:26:12.919Z,95556.47
2023-11-04T00:28:46.080Z,95556.69
2023-11-04T00:31:14.070Z,95546.78
2023-11-04T00:34:04.039Z,95548.25
2023-11-04T00:36:52.115Z,95555.31
2023-11-04T00:39:40.337Z,95548.06
2023-11-04T00:42:30.675Z,95549.41
2023-11-04T00:45:20.447Z,95546.03
2023-11-04T00:48:08.604Z,95551.63
2023-11-04T00:50:56.794Z,95547.53
2023-11-04T00:53:44.798Z,95551.06
2023-11-04T00:56:34.689Z,95552.53
2023-11-04T00:59:22.533Z,95563.44
2023-11-04T01:02:11.837Z,95553.38
2023-11-04T01:04:59.879Z,95555.47
2023-11-04T01:07:50.373Z,95562.88
2023-11-04T01:10:38.553Z,95557.78
2023-11-04T01:13:26.905Z,95555.97
2023-11-04T01:16:15.146Z,95558.09
2023-11-04T01:19:03.460Z,95559.50
2023-11-04T01:21:52.217Z,95542.97
2023-11-04T01:24:41.119Z,95552.78
2023-11-04T01:27:29.061Z,95552.25
2023-11-04T01:30:17.698Z,95550.03
2023-11-04T01:33:05.779Z,95555.63
2023-11-04T01:35:54.614Z,95546.69
2023-11-04T01:38:43.491Z,95549.69
2023-11-04T01:41:33.383Z,95552.63
2023-11-04T01:44:21.506Z,95552.38
2023-11-04T01:47:10.793Z,95548.63
2023-11-04T01:49:58.626Z,95550.03
2023-11-04T01:52:47.943Z,95561.22
2023-11-04T01:55:37.565Z,95559.78
2023-11-04T01:58:29.853Z,95569.72
2023-11-04T02:01:18.856Z,95563.56
2023-11-04T02:04:07.935Z,95575.78
2023-11-04T02:06:55.811Z,95579.53
2023-11-04T02:09:43.994Z,95581.63
2023-11-04T02:12:32.962Z,95581.09
2023-11-04T02:15:22.514Z,95574.66
2023-11-04T02:18:10.415Z,95577.91
2023-11-04T02:20:59.604Z,95584.84
2023-11-04T02:23:47.628Z,95572.81
2023-11-04T02:26:36.029Z,95572.03
2023-11-04T02:29:23.841Z,95579.38
2023-11-04T02:32:11.989Z,95577.59
2023-11-04T02:35:01.928Z,95577.13
2023-11-04T02:37:51.638Z,95578.13
2023-11-04T02:40:39.782Z,95572.03
2023-11-04T02:43:27.922Z,95582.25
2023-11-04T02:46:16.129Z,95586.88
2023-11-04T02:49:04.390Z,95586.88
2023-11-04T02:51:58.451Z,95587.44
2023-11-04T02:54:52.071Z,95595.34
2023-11-04T02:57:40.154Z,95594.06
2023-11-04T03:00:28.315Z,95594.84
2023-11-04T03:03:16.228Z,95596.88
2023-11-04T03:06:05.065Z,95597.16
2023-11-04T03:08:52.976Z,95605.91
2023-11-04T03:11:41.119Z,95601.50
2023-11-04T03:14:29.604Z,95605.91
2023-11-04T03:17:18.288Z,95607.28
2023-11-04T03:20:07.688Z,95611.00
2023-11-04T03:22:55.894Z,95610.06
2023-11-04T03:25:44.082Z,95608.88
2023-11-04T03:28:32.389Z,95608.47
2023-11-04T03:31:20.800Z,95613.00
2023-11-04T03:34:09.058Z,95608.81
2023-11-04T03:36:57.471Z,95611.69
2023-11-04T03:39:45.866Z,95617.44
2023-11-04T03:42:38.156Z,95623.03
2023-11-04T03:45:35.815Z,95614.56
2023-11-04T03:48:25.519Z,95619.16
2023-11-04T03:51:13.849Z,95606.97
2023-11-04T03:54:01.833Z,95620.31
2023-11-04T03:56:50.120Z,95622.84
2023-11-04T03:59:38.327Z,95616.66
2023-11-04T04:02:26.664Z,95629.06
2023-11-04T04:05:15.176Z,95626.09
2023-11-04T04:08:03.565Z,95633.59
2023-11-04T04:10:52.523Z,95633.78
2023-11-04T04:13:40.774Z,95640.88
2023-11-04T04:16:28.675Z,95632.44
2023-11-04T04:19:17.773Z,95637.91
2023-11-04T04:22:06.104Z,95652.63
2023-11-04T04:24:54.167Z,95651.09
2023-11-04T04:27:42.775Z,95659.75
2023-11-04T04:30:30.967Z,95655.81
2023-11-04T04:33:19.097Z,95665.72
2023-11-04T04:36:08.673Z,95655.91
2023-11-04T04:38:56.513Z,95662.75
2023-11-04T04:41:45.838Z,95656.56
2023-11-04T04:44:35.349Z,95665.91
2023-11-04T04:47:23.581Z,95672.09
2023-11-04T04:50:12.189Z,95669.19
2023-11-04T04:53:00.309Z,95650.25
2023-11-04T04:56:27.413Z,95660.94
2023-11-04T04:59:15.765Z,95659.69
2023-11-04T05:02:03.912Z,95658.25
2023-11-04T05:04:52.150Z,95661.91
2023-11-04T05:07:40.049Z,95664.22
2023-11-04T05:10:28.262Z,95668.81
2023-11-04T05:13:16.052Z,95663.56
2023-11-04T05:16:04.530Z,95662.09
2023-11-04T05:18:52.630Z,95655.56
2023-11-04T05:21:41.065Z,95666.34
2023-11-04T05:24:28.908Z,95662.47
2023-11-04T05:27:17.240Z,95662.47
2023-11-04T05:30:08.246Z,95667.28
2023-11-04T05:32:57.837Z,95674.59
2023-11-04T05:35:45.998Z,95667.88
2023-11-04T05:38:34.236Z,95679.44
2023-11-04T05:41:22.717Z,95679.63
2023-11-04T05:44:10.960Z,95673.53
2023-11-04T05:46:58.871Z,95677.88
2023-11-04T05:49:46.963Z,95671.09
2023-11-04T05:52:34.804Z,95658.13
2023-11-04T05:55:23.541Z,95674.00
2023-11-04T05:58:11.443Z,95667.16
2023-11-04T06:01:00.061Z,95675.38
2023-11-04T06:03:51.014Z,95687.44
2023-11-04T06:06:39.335Z,95670.25
2023-11-04T06:09:27.374Z,95663.00
2023-11-04T06:12:16.272Z,95664.25
2023-11-04T06:15:05.423Z,95678.03
2023-11-04T06:17:53.642Z,95671.81
2023-11-04T06:20:41.472Z,95665.81
2023-11-04T06:23:29.600Z,95671.56
2023-11-04T06:26:24.319Z,95666.97
2023-11-04T06:29:12.578Z,95673.94
2023-11-04T06:32:00.726Z,95660.81
2023-11-04T06:34:48.900Z,95654.50
2023-11-04T06:37:39.783Z,95652.03
2023-11-04T06:40:28.113Z,95656.69
2023-11-04T06:43:15.887Z,95650.19
2023-11-04T06:46:07.708Z,95655.84
2023-11-04T06:48:55.705Z,95647.19
2023-11-04T06:51:43.980Z,95646.03
2023-11-04T06:54:12.043Z,95640.75
2023-11-04T06:56:40.196Z,95646.41
2023-11-04T06:59:08.218Z,95641.84
2023-11-04T07:01:36.477Z,95643.38
2023-11-04T07:04:05.008Z,95648.75
2023-11-04T07:06:33.341Z,95639.16
2023-11-04T07:09:02.007Z,95643.81
2023-11-04T07:11:30.582Z,95630.63
2023-11-04T07:13:58.574Z,95639.63
2023-11-04T07:16:26.719Z,95640.72
2023-11-04T07:18:54.864Z,95642.75
2023-11-04T07:21:23.144Z,95635.41
2023-11-04T07:23:51.191Z,95645.19
2023-11-04T07:26:19.989Z,95640.88
2023-11-04T07:28:48.404Z,95649.34
2023-11-04T07:31:16.892Z,95649.84
2023-11-04T07:33:45.441Z,95651.91
2023-11-04T07:36:14.005Z,95643.75
2023-11-04T07:38:42.004Z,95639.75
2023-11-04T07:41:19.932Z,95632.63
2023-11-04T07:43:47.948Z,95636.50
2023-11-04T07:46:16.330Z,95626.31
2023-11-04T07:48:45.322Z,95623.81
2023-11-04T07:51:13.673Z,95618.47
2023-11-04T07:53:42.712Z,95616.94
2023-11-04T07:56:11.583Z,95608.56
2023-11-04T07:58:39.608Z,95605.53
2023-11-04T08:01:08.332Z,95609.13
2023-11-04T08:03:36.437Z,95597.41
2023-11-04T08:06:05.474Z,95598.19
2023-11-04T08:08:33.463Z,95600.00
2023-11-04T08:11:01.666Z,95599.53
2023-11-04T08:13:29.627Z,95579.66
2023-11-04T08:15:57.913Z,95583.00
2023-11-04T08:18:32.880Z,95587.09
2023-11-04T08:21:02.690Z,95566.16
2023-11-04T08:23:30.621Z,95564.13
2023-11-04T08:25:59.847Z,95562.34
2023-11-04T08:28:30.160Z,95568.44
2023-11-04T08:30:59.478Z,95557.47
2023-11-04T08:33:27.589Z,95548.75
2023-11-04T08:35:57.626Z,95544.66
2023-11-04T08:38:26.324Z,95538.00
2023-11-04T08:40:55.688Z,95534.19
2023-11-04T08:43:24.067Z,95533.41
2023-11-04T08:45:52.957Z,95530.31
2023-11-04T08:48:24.645Z,95535.66
2023-11-04T08:50:53.364Z,95533.31
2023-11-04T08:53:21.290Z,95519.53
2023-11-04T08:55:49.866Z,95527.13
2023-11-04T08:58:17.772Z,95523.34
2023-11-04T09:00:46.196Z,95522.53
2023-11-04T09:03:16.394Z,95515.63
2023-11-04T09:05:44.904Z,95518.91
2023-11-04T09:08:12.884Z,95511.25
2023-11-04T09:10:41.131Z,95523.47
2023-11-04T09:13:09.198Z,95514.50
2023-11-04T09:15:37.591Z,95513.47
2023-11-04T09:18:07.543Z,95502.69
2023-11-04T09:20:35.737Z,95500.84
2023-11-04T09:23:03.881Z,95512.84
2023-11-04T09:25:32.176Z,95506.47
2023-11-04T09:28:00.248Z,95502.59
2023-11-04T09:30:28.538Z,95507.41
2023-11-04T09:32:56.976Z,95512.53
2023-11-04T09:35:25.329Z,95496.38
2023-11-04T09:37:53.285Z,95498.19
2023-11-04T09:40:21.582Z,95495.84
2023-11-04T09:42:51.148Z,95508.13
2023-11-04T09:45:23.366Z,95496.31
2023-11-04T09:47:51.365Z,95478.91
2023-11-04T09:50:19.892Z,95488.06
2023-11-04T09:52:51.449Z,95479.34
2023-11-04T09:55:20.304Z,95471.63
2023-11-04T09:57:48.778Z,95469.31
2023-11-04T10:00:21.845Z,95477.97
2023-11-04T10:02:49.846Z,95474.66
2023-11-04T10:05:19.413Z,95463.09
2023-11-04T10:07:48.713Z,95477.16
2023-11-04T10:10:22.585Z,95475.63
2023-11-04T10:12:58.099Z,95472.25
2023-11-04T10:15:26.920Z,95467.88
2023-11-04T10:17:56.110Z,95459.13
2023-11-04T10:20:24.944Z,95472.66
2023-11-04T10:22:53.100Z,95466.00
2023-11-04T10:25:22.191Z,95461.34
2023-11-04T10:27:50.474Z,95452.13
2023-11-04T10:30:18.971Z,95447.75
2023-11-04T10:32:50.840Z,95453.63
2023-11-04T10:35:20.979Z,95462.06
2023-11-04T10:37:50.127Z,95455.94
2023-11-04T10:40:19.677Z,95446.91
2023-11-04T10:43:15.920Z,95440.22
2023-11-04T10:46:08.893Z,95452.28
2023-11-04T10:49:02.029Z,95448.59
2023-11-04T10:51:45.854Z,95455.31
2023-11-04T10:54:21.419Z,95458.63
2023-11-04T10:56:50.852Z,95456.81
2023-11-04T10:59:34.902Z,95458.31
2023-11-04T11:02:04.302Z,95444.44
2023-11-04T11:04:34.534Z,95443.16
2023-11-04T11:07:03.995Z,95447.28
2023-11-04T11:09:32.316Z,95453.13
2023-11-04T11:12:11.321Z,95451.88
2023-11-04T11:14:40.439Z,95449.25
2023-11-04T11:17:10.781Z,95446.22
2023-11-04T11:19:53.078Z,95450.25
2023-11-04T11:22:25.291Z,95455.91
2023-11-04T11:24:55.104Z,95449.75
2023-11-04T11:27:24.463Z,95452.00
2023-11-04T11:29:54.859Z,95447.16
2023-11-04T11:32:23.346Z,95453.56
2023-11-04T11:34:53.012Z,95459.94
2023-11-04T11:37:25.667Z,95459.19
2023-11-04T11:39:54.850Z,95455.81
2023-11-04T11:42:27.611Z,95450.97
2023-11-04T11:44:58.248Z,95457.91
2023-11-04T11:47:27.450Z,95459.94
2023-11-04T11:49:56.449Z,95481.00
2023-11-04T11:52:24.857Z,95458.44
2023-11-04T11:54:54.041Z,95462.53
2023-11-04T11:57:22.992Z,95470.75
2023-11-04T11:59:50.837Z,95465.88
2023-11-04T12:02:19.959Z,95483.59
2023-11-04T12:04:48.441Z,95497.44
2023-11-04T12:07:19.111Z,95483.59
2023-11-04T12:09:47.318Z,95488.97
2023-11-04T12:12:17.463Z,95481.56
2023-11-04T12:14:46.771Z,95475.94
2023-11-04T12:17:15.860Z,95492.09
2023-11-04T12:19:43.922Z,95477.50
2023-11-04T12:22:12.166Z,95489.56
2023-11-04T12:24:40.290Z,95483.69
2023-11-04T12:27:09.661Z,95480.63
2023-11-04T12:29:40.455Z,95479.63
2023-11-04T12:32:09.271Z,95482.44
2023-11-04T12:34:37.506Z,95484.25
2023-11-04T12:37:06.372Z,95483.53
2023-11-04T12:39:34.217Z,95482.50
2023-11-04T12:42:02.981Z,95481.78
2023-11-04T12:44:31.776Z,95488.97
2023-11-04T12:47:00.619Z,95484.38
2023-11-04T12:49:28.532Z,95489.53
2023-11-04T12:51:58.848Z,95485.75
2023-11-04T12:54:27.074Z,95484.50
2023-11-04T12:56:55.437Z,95491.41
2023-11-04T12:59:23.327Z,95485.81
2023-11-04T13:01:53.933Z,95488.69
2023-11-04T13:04:23.690Z,95491.25
2023-11-04T13:06:53.436Z,95503.59
2023-11-04T13:09:21.546Z,95498.47
2023-11-04T13:11:50.320Z,95493.88
2023-11-04T13:14:18.363Z,95499.81
2023-11-04T13:16:46.860Z,95513.66
2023-11-04T13:19:14.754Z,95510.31
2023-11-04T13:21:46.255Z,95513.94
2023-11-04T13:24:14.548Z,95516.03
2023-11-04T13:26:43.165Z,95509.66
2023-11-04T13:29:11.249Z,95517.31
2023-11-04T13:31:41.255Z,95514.50
2023-11-04T13:34:10.953Z,95515.56
2023-11-04T13:36:39.477Z,95525.03
2023-11-04T13:39:12.332Z,95523.03
2023-11-04T13:41:41.711Z,95532.75
2023-11-04T13:44:10.391Z,95532.53
2023-11-04T13:46:39.956Z,95537.16
2023-11-04T13:49:07.882Z,95541.53
2023-11-04T13:51:36.830Z,95545.38
2023-11-04T13:54:08.004Z,95553.81
2023-11-04T13:56:36.474Z,95549.47
2023-11-04T13:59:05.814Z,95554.59
2023-11-04T14:01:34.337Z,95558.72
2023-11-04T14:04:04.644Z,95561.28
2023-11-04T14:06:33.665Z,95562.31
2023-11-04T14:09:02.073Z,95570.25
2023-11-04T14:11:30.595Z,95560.81
2023-11-04T14:13:58.976Z,95568.00
2023-11-04T14:16:28.562Z,95572.59
2023-11-04T14:18:57.288Z,95572.34
2023-11-04T14:21:25.573Z,95578.78
2023-11-04T14:24:00.498Z,95572.66
2023-11-04T14:26:31.121Z,95573.66
2023-11-04T14:28:59.223Z,95573.19
2023-11-04T14:31:27.559Z,95574.97
2023-11-04T14:33:55.583Z,95578.81
2023-11-04T14:36:25.173Z,95573.94
2023-11-04T14:38:53.213Z,95573.69
2023-11-04T14:41:21.551Z,95575.72
2023-11-04T14:46:51.899Z,95584.44
2023-11-04T14:49:21.261Z,95586.72
2023-11-04T14:52:28.549Z,95588.78
2023-11-04T14:55:00.511Z,95599.28
2023-11-04T14:57:47.912Z,95596.19
2023-11-04T15:00:16.395Z,95595.97
2023-11-04T15:02:44.628Z,95610.31
2023-11-04T15:05:14.317Z,95613.38
2023-11-04T15:07:42.772Z,95623.88
2023-11-04T15:10:10.992Z,95618.25
2023-11-04T15:12:46.237Z,95614.94
2023-11-04T15:15:14.669Z,95628.75
2023-11-04T15:17:43.269Z,95622.88
2023-11-04T15:20:24.179Z,95627.19
2023-11-04T15:22:52.569Z,95627.47
2023-11-04T15:25:20.797Z,95621.06
2023-11-04T15:27:52.706Z,95627.22
2023-11-04T15:30:21.330Z,95637.13
2023-11-04T15:32:50.458Z,95637.41
2023-11-04T15:35:19.279Z,95641.97
2023-11-04T15:37:47.531Z,95645.81
2023-11-04T15:40:15.846Z,95656.00
2023-11-04T15:42:44.456Z,95656.00
2023-11-04T15:45:15.605Z,95653.44
2023-11-04T15:47:46.640Z,95655.19
2023-11-04T15:50:16.517Z,95665.41
2023-11-04T15:52:44.971Z,95655.09
2023-11-04T15:55:13.320Z,95658.47
2023-11-04T15:57:42.665Z,95652.09
2023-11-04T16:00:11.846Z,95657.44
2023-11-04T16:02:40.137Z,95655.38
2023-11-04T16:05:09.323Z,95672.16
2023-11-04T16:07:42.022Z,95675.19
2023-11-04T16:10:13.134Z,95673.38
2023-11-04T16:12:42.216Z,95676.63
2023-11-04T16:15:10.865Z,95688.84
2023-11-04T16:17:39.291Z,95688.31
2023-11-04T16:20:07.935Z,95698.75
2023-11-04T16:22:36.660Z,95710.00
2023-11-04T16:25:06.318Z,95708.22
2023-11-04T16:27:36.799Z,95711.81
2023-11-04T16:30:06.342Z,95711.81
2023-11-04T16:32:35.118Z,95716.94
2023-11-04T16:35:04.560Z,95722.59
2023-11-04T16:37:32.933Z,95714.63
2023-11-04T16:40:01.892Z,95722.53
2023-11-04T16:42:32.528Z,95722.03
2023-11-04T16:45:00.400Z,95719.97
2023-11-04T16:47:29.198Z,95722.22
2023-11-04T16:49:57.299Z,95723.19
2023-11-04T16:52:25.661Z,95727.53
2023-11-04T16:54:54.182Z,95733.91
2023-11-04T16:57:22.798Z,95731.84
2023-11-04T16:59:51.421Z,95733.13
2023-11-04T17:02:27.343Z,95730.31
2023-11-04T17:04:55.546Z,95734.66
2023-11-04T17:07:25.719Z,95730.56
2023-11-04T17:09:54.577Z,95734.16
2023-11-04T17:12:23.951Z,95728.31
2023-11-04T17:14:54.403Z,95739.16
2023-11-04T17:17:22.992Z,95739.28
2023-11-04T17:19:52.022Z,95742.09
2023-11-04T17:22:20.542Z,95749.69
2023-11-04T17:24:50.114Z,95742.81
2023-11-04T17:27:18.685Z,95754.63
2023-11-04T17:29:46.675Z,95749.47
2023-11-04T17:32:15.106Z,95756.56
2023-11-04T17:34:43.205Z,95756.09
2023-11-04T17:37:11.688Z,95756.34
2023-11-04T17:39:39.557Z,95757.44
2023-11-04T17:42:07.996Z,95757.94
2023-11-04T17:44:35.907Z,95769.19
2023-11-04T17:47:04.680Z,95775.78
2023-11-04T17:49:37.732Z,95777.28
2023-11-04T17:52:06.050Z,95768.81
2023-11-04T17:54:33.937Z,95778.50
2023-11-04T17:57:05.950Z,95777.50
2023-11-04T17:59:35.908Z,95778.28
2023-11-04T18:02:04.342Z,95772.38
2023-11-04T18:04:32.615Z,95785.34
2023-11-04T18:07:01.010Z,95780.25
2023-11-04T18:09:29.214Z,95779.69
2023-11-04T18:11:57.868Z,95782.28
2023-11-04T18:14:26.684Z,95783.88
2023-11-04T18:17:02.914Z,95782.84
2023-11-04T18:20:46.262Z,95795.75
2023-11-04T18:25:22.121Z,95796.22
2023-11-04T18:27:59.013Z,95794.44
2023-11-04T18:30:32.417Z,95802.63
2023-11-04T18:33:00.685Z,95800.56
2023-11-04T18:35:28.803Z,95802.75
2023-11-04T18:37:57.540Z,95806.38
2023-11-04T18:40:25.536Z,95807.91
2023-11-04T18:42:53.843Z,95805.13
2023-11-04T18:45:21.978Z,95805.19
2023-11-04T18:47:50.186Z,95809.88
2023-11-04T18:50:18.521Z,95815.50
2023-11-04T18:52:46.653Z,95804.28
2023-11-04T18:55:16.811Z,95815.22
2023-11-04T18:57:45.583Z,95809.13
2023-11-04T19:00:14.065Z,95813.38
2023-11-04T19:02:42.590Z,95814.94
2023-11-04T19:05:10.695Z,95814.38
2023-11-04T19:07:39.888Z,95813.34
2023-11-04T19:10:08.064Z,95818.16
2023-11-04T19:12:39.036Z,95822.91
2023-11-04T19:15:08.364Z,95822.38
2023-11-04T19:17:36.642Z,95820.63
2023-11-04T19:20:06.632Z,95819.84
2023-11-04T19:22:35.275Z,95822.44
2023-11-04T19:25:03.701Z,95810.13
2023-11-04T19:27:32.326Z,95818.78
2023-11-04T19:30:00.345Z,95819.22
2023-11-04T19:32:29.821Z,95832.63
2023-11-04T19:34:57.797Z,95826.91
2023-11-04T19:37:28.236Z,95830.47
2023-11-04T19:39:56.280Z,95832.31
2023-11-04T19:42:24.581Z,95835.16
2023-11-04T19:44:53.195Z,95841.25
2023-11-04T19:47:21.621Z,95834.53
2023-11-04T19:49:49.618Z,95833.81
2023-11-04T19:52:19.393Z,95844.63
2023-11-04T19:54:47.430Z,95846.41
2023-11-04T19:57:16.075Z,95855.50
2023-11-04T19:59:46.179Z,95847.81
2023-11-04T20:02:14.478Z,95850.59
2023-11-04T20:04:42.685Z,95850.81
2023-11-04T20:07:11.130Z,95847.53
2023-11-04T20:09:39.064Z,95842.41
2023-11-04T20:12:07.680Z,95847.06
2023-11-04T20:14:37.767Z,95857.06
2023-11-04T20:17:06.218Z,95856.97
2023-11-04T20:19:34.230Z,95857.44
2023-11-04T20:22:03.762Z,95858.31
2023-11-04T20:24:31.668Z,95860.44
2023-11-04T20:27:00.254Z,95856.59
2023-11-04T20:29:28.156Z,95858.69
2023-11-04T20:31:56.778Z,95850.59
2023-11-04T20:34:24.963Z,95864.56
2023-11-04T20:36:53.456Z,95860.66
2023-11-04T20:39:21.537Z,95857.66
2023-11-04T20:41:49.879Z,95861.03
2023-11-04T20:44:19.089Z,95869.09
2023-11-04T20:46:47.772Z,95874.25
2023-11-04T20:49:15.739Z,95876.47
2023-11-04T20:51:44.866Z,95879.75
2023-11-04T20:54:12.706Z,95876.09
2023-11-04T20:56:42.270Z,95873.19
2023-11-04T20:59:11.445Z,95875.50
2023-11-04T21:01:42.537Z,95871.47
2023-11-04T21:04:11.348Z,95872.81
2023-11-04T21:06:40.092Z,95870.69
2023-11-04T21:09:09.516Z,95862.41
2023-11-04T21:11:40.113Z,95865.41
2023-11-04T21:14:08.488Z,95858.25
2023-11-04T21:16:37.300Z,95862.63
2023-11-04T21:19:05.757Z,95867.44
2023-11-04T21:21:35.234Z,95863.56
2023-11-04T21:24:03.492Z,95879.56
2023-11-04T21:26:31.913Z,95878.59
2023-11-04T21:29:00.033Z,95885.06
2023-11-04T21:31:28.370Z,95882.06
2023-11-04T21:33:56.731Z,95888.13
2023-11-04T21:36:25.214Z,95884.38
2023-11-04T21:38:53.258Z,95884.00
2023-11-04T21:41:21.444Z,95872.03
2023-11-04T21:43:49.392Z,95874.47
2023-11-04T21:46:17.665Z,95874.53
2023-11-04T21:48:45.878Z,95878.00
2023-11-04T21:51:14.244Z,95882.44
2023-11-04T21:53:43.257Z,95881.19
2023-11-04T21:56:11.420Z,95890.22
2023-11-04T21:58:39.356Z,95887.16
2023-11-04T22:01:08.155Z,95886.25
2023-11-04T22:03:36.361Z,95877.94
2023-11-04T22:06:05.079Z,95889.13
2023-11-04T22:08:33.059Z,95880.38
2023-11-04T22:11:01.322Z,95887.28
2023-11-04T22:13:29.333Z,95891.00
2023-11-04T22:15:57.857Z,95884.78
2023-11-04T22:18:25.940Z,95879.38
2023-11-04T22:20:54.314Z,95882.03
2023-11-04T22:23:22.279Z,95893.78
2023-11-04T22:25:50.725Z,95895.88
2023-11-04T22:28:18.776Z,95895.69
2023-11-04T22:30:47.325Z,95889.22
2023-11-04T22:33:15.737Z,95889.06
2023-11-04T22:35:44.080Z,95893.69
2023-11-04T22:38:12.035Z,95903.19
2023-11-04T22:40:40.175Z,95905.19
2023-11-04T22:43:08.249Z,95907.34
2023-11-04T22:45:36.969Z,95909.56
2023-11-04T22:48:05.290Z,95901.94
2023-11-04T22:50:33.475Z,95904.81
2023-11-04T22:53:01.650Z,95902.03
2023-11-04T22:55:29.856Z,95898.22
2023-11-04T22:57:57.916Z,95897.84
2023-11-04T23:00:41.695Z,95889.66
2023-11-04T23:03:10.335Z,95892.75
2023-11-04T23:05:39.483Z,95889.97
2023-11-04T23:08:09.056Z,95900.34
2023-11-04T23:10:37.325Z,95897.47
2023-11-04T23:13:05.264Z,95901.47
2023-11-04T23:15:33.612Z,95901.84
2023-11-04T23:18:01.668Z,95886.44
2023-11-04T23:20:30.813Z,95894.94
2023-11-04T23:22:59.964Z,95894.34
2023-11-04T23:25:28.451Z,95904.34
2023-11-04T23:27:56.693Z,95902.66
2023-11-04T23:30:25.196Z,95899.69
2023-11-04T23:32:53.419Z,95893.84
2023-11-04T23:35:21.731Z,95888.72
2023-11-04T23:37:49.748Z,95891.38
2023-11-04T23:40:18.156Z,95882.94
2023-11-04T23:42:46.925Z,95889.03
2023-11-04T23:45:15.332Z,95889.19
2023-11-04T23:47:43.214Z,95883.66
2023-11-04T23:50:11.732Z,95894.22
2023-11-04T23:52:40.309Z,95882.41
2023-11-04T23:55:09.203Z,95886.44
2023-11-04T23:57:37.070Z,95882.59
